sensor_id;sensor_type;location;lat;lon;timestamp;pressure;altitude;pressure_sealevel;temperature;humidity
46392;BME280;32098;49.448;7.904;2023-06-24T00:01:45;98992.94;;;14.73;62.88
46392;BME280;32098;49.448;7.904;2023-06-24T00:04:12;98990.00;;;14.75;62.57
46392;BME280;32098;49.448;7.904;2023-06-24T00:06:41;98997.94;;;14.70;62.95
46392;BME280;32098;49.448;7.904;2023-06-24T00:09:08;98996.50;;;14.79;62.36
46392;BME280;32098;49.448;7.904;2023-06-24T00:11:34;99001.91;;;14.79;62.18
46392;BME280;32098;49.448;7.904;2023-06-24T00:14:01;98990.91;;;14.80;62.18
46392;BME280;32098;49.448;7.904;2023-06-24T00:16:27;98996.31;;;14.69;62.25
46392;BME280;32098;49.448;7.904;2023-06-24T00:18:55;98994.44;;;14.81;61.83
46392;BME280;32098;49.448;7.904;2023-06-24T00:21:25;98998.78;;;14.70;62.02
46392;BME280;32098;49.448;7.904;2023-06-24T00:24:04;98945.19;;;14.17;62.63
46392;BME280;32098;49.448;7.904;2023-06-24T00:26:31;99005.13;;;14.53;62.86
46392;BME280;32098;49.448;7.904;2023-06-24T00:28:58;98994.22;;;14.48;63.05
46392;BME280;32098;49.448;7.904;2023-06-24T00:31:25;99002.06;;;14.38;63.22
46392;BME280;32098;49.448;7.904;2023-06-24T00:33:52;98995.25;;;14.47;62.98
46392;BME280;32098;49.448;7.904;2023-06-24T00:36:20;98967.00;;;14.33;63.00
46392;BME280;32098;49.448;7.904;2023-06-24T00:38:46;98996.09;;;14.59;62.62
46392;BME280;32098;49.448;7.904;2023-06-24T00:41:16;99004.16;;;14.47;62.98
46392;BME280;32098;49.448;7.904;2023-06-24T00:43:44;99001.22;;;14.49;63.17
46392;BME280;32098;49.448;7.904;2023-06-24T00:46:11;98991.53;;;14.48;63.10
46392;BME280;32098;49.448;7.904;2023-06-24T00:48:40;98995.88;;;14.37;63.45
46392;BME280;32098;49.448;7.904;2023-06-24T00:51:06;98993.31;;;14.30;63.42
46392;BME280;32098;49.448;7.904;2023-06-24T00:53:33;98999.38;;;14.38;63.59
46392;BME280;32098;49.448;7.904;2023-06-24T00:56:00;98996.34;;;14.22;63.54
46392;BME280;32098;49.448;7.904;2023-06-24T00:58:31;99007.22;;;14.16;64.44
46392;BME280;32098;49.448;7.904;2023-06-24T01:00:58;99002.53;;;14.23;64.60
46392;BME280;32098;49.448;7.904;2023-06-24T01:03:25;99002.88;;;14.15;64.93
46392;BME280;32098;49.448;7.904;2023-06-24T01:05:53;99004.53;;;14.27;64.48
46392;BME280;32098;49.448;7.904;2023-06-24T01:08:20;99011.06;;;14.31;64.14
46392;BME280;32098;49.448;7.904;2023-06-24T01:10:50;99008.94;;;14.22;64.48
46392;BME280;32098;49.448;7.904;2023-06-24T01:13:17;99008.13;;;14.21;64.65
46392;BME280;32098;49.448;7.904;2023-06-24T01:15:44;99009.31;;;14.25;64.24
46392;BME280;32098;49.448;7.904;2023-06-24T01:18:24;99009.91;;;14.27;64.08
46392;BME280;32098;49.448;7.904;2023-06-24T01:21:01;99004.16;;;14.24;64.22
46392;BME280;32098;49.448;7.904;2023-06-24T01:31:51;99008.13;;;13.98;64.92
46392;BME280;32098;49.448;7.904;2023-06-24T01:34:31;99016.03;;;13.82;65.57
46392;BME280;32098;49.448;7.904;2023-06-24T01:37:12;99021.66;;;13.80;65.74
46392;BME280;32098;49.448;7.904;2023-06-24T01:39:49;99017.56;;;13.89;65.33
46392;BME280;32098;49.448;7.904;2023-06-24T01:42:18;99017.69;;;13.94;65.13
46392;BME280;32098;49.448;7.904;2023-06-24T01:44:48;99011.03;;;13.85;65.28
46392;BME280;32098;49.448;7.904;2023-06-24T01:47:19;99013.34;;;13.82;65.18
46392;BME280;32098;49.448;7.904;2023-06-24T01:49:46;99021.53;;;13.87;65.13
46392;BME280;32098;49.448;7.904;2023-06-24T01:52:14;99009.38;;;13.84;65.36
46392;BME280;32098;49.448;7.904;2023-06-24T01:54:41;99014.50;;;13.74;65.56
46392;BME280;32098;49.448;7.904;2023-06-24T01:57:09;99025.25;;;13.74;65.75
46392;BME280;32098;49.448;7.904;2023-06-24T01:59:39;99021.41;;;13.82;65.18
46392;BME280;32098;49.448;7.904;2023-06-24T02:02:07;99019.88;;;13.74;65.47
46392;BME280;32098;49.448;7.904;2023-06-24T02:04:35;99019.78;;;13.51;66.62
46392;BME280;32098;49.448;7.904;2023-06-24T02:07:02;99012.53;;;13.40;66.38
46392;BME280;32098;49.448;7.904;2023-06-24T02:09:31;99021.03;;;13.37;66.97
46392;BME280;32098;49.448;7.904;2023-06-24T02:12:01;98993.06;;;13.15;67.18
46392;BME280;32098;49.448;7.904;2023-06-24T02:14:31;99010.59;;;13.29;67.23
46392;BME280;32098;49.448;7.904;2023-06-24T02:17:00;99017.03;;;13.28;67.77
46392;BME280;32098;49.448;7.904;2023-06-24T02:19:29;99013.78;;;13.08;69.06
46392;BME280;32098;49.448;7.904;2023-06-24T02:22:01;99013.56;;;12.91;69.54
46392;BME280;32098;49.448;7.904;2023-06-24T02:24:28;99011.94;;;13.08;68.86
46392;BME280;32098;49.448;7.904;2023-06-24T02:26:58;98986.75;;;13.09;68.39
46392;BME280;32098;49.448;7.904;2023-06-24T02:29:26;99003.94;;;13.20;68.10
46392;BME280;32098;49.448;7.904;2023-06-24T02:31:55;99008.41;;;13.26;68.07
46392;BME280;32098;49.448;7.904;2023-06-24T02:34:25;99007.59;;;13.37;67.41
46392;BME280;32098;49.448;7.904;2023-06-24T02:36:51;99007.47;;;13.32;67.11
46392;BME280;32098;49.448;7.904;2023-06-24T02:39:19;99011.25;;;13.13;67.90
46392;BME280;32098;49.448;7.904;2023-06-24T02:41:45;98979.53;;;12.91;68.02
46392;BME280;32098;49.448;7.904;2023-06-24T02:44:13;99009.47;;;13.07;68.14
46392;BME280;32098;49.448;7.904;2023-06-24T02:46:44;99005.88;;;13.13;68.05
46392;BME280;32098;49.448;7.904;2023-06-24T02:49:13;99017.59;;;13.00;68.07
46392;BME280;32098;49.448;7.904;2023-06-24T02:51:42;98952.94;;;12.60;67.98
46392;BME280;32098;49.448;7.904;2023-06-24T02:54:09;99027.19;;;13.08;67.56
46392;BME280;32098;49.448;7.904;2023-06-24T02:57:08;99011.28;;;12.76;68.51
46392;BME280;32098;49.448;7.904;2023-06-24T02:59:57;99021.84;;;12.89;68.64
46392;BME280;32098;49.448;7.904;2023-06-24T03:02:32;99017.09;;;12.91;68.21
46392;BME280;32098;49.448;7.904;2023-06-24T03:04:59;99015.66;;;13.07;67.53
46392;BME280;32098;49.448;7.904;2023-06-24T03:07:28;99013.97;;;12.94;68.05
46392;BME280;32098;49.448;7.904;2023-06-24T03:09:56;99022.97;;;13.00;67.86
46392;BME280;32098;49.448;7.904;2023-06-24T03:12:25;99020.22;;;12.88;68.78
46392;BME280;32098;49.448;7.904;2023-06-24T03:14:52;99014.56;;;12.78;69.12
46392;BME280;32098;49.448;7.904;2023-06-24T03:17:18;99016.19;;;12.79;68.93
46392;BME280;32098;49.448;7.904;2023-06-24T03:19:45;99013.97;;;12.76;69.36
46392;BME280;32098;49.448;7.904;2023-06-24T03:22:11;99012.84;;;12.84;68.98
46392;BME280;32098;49.448;7.904;2023-06-24T03:24:41;99002.81;;;12.79;68.57
46392;BME280;32098;49.448;7.904;2023-06-24T03:27:08;99023.34;;;12.67;69.21
46392;BME280;32098;49.448;7.904;2023-06-24T03:29:39;99012.94;;;12.77;68.97
46392;BME280;32098;49.448;7.904;2023-06-24T03:32:11;99020.22;;;12.88;68.34
46392;BME280;32098;49.448;7.904;2023-06-24T03:34:38;99006.84;;;12.70;68.72
46392;BME280;32098;49.448;7.904;2023-06-24T03:37:04;99028.19;;;12.77;68.39
46392;BME280;32098;49.448;7.904;2023-06-24T03:39:34;99010.34;;;12.53;69.34
46392;BME280;32098;49.448;7.904;2023-06-24T03:42:01;99019.94;;;12.60;69.02
46392;BME280;32098;49.448;7.904;2023-06-24T03:44:27;99020.09;;;12.65;68.62
46392;BME280;32098;49.448;7.904;2023-06-24T03:46:54;99023.94;;;12.69;69.20
46392;BME280;32098;49.448;7.904;2023-06-24T03:49:20;99016.34;;;12.66;68.63
46392;BME280;32098;49.448;7.904;2023-06-24T03:51:47;99000.84;;;12.68;68.71
46392;BME280;32098;49.448;7.904;2023-06-24T03:54:14;99013.75;;;12.60;69.09
46392;BME280;32098;49.448;7.904;2023-06-24T03:56:41;99007.56;;;12.59;69.62
46392;BME280;32098;49.448;7.904;2023-06-24T03:59:07;99001.91;;;12.49;70.21
46392;BME280;32098;49.448;7.904;2023-06-24T04:01:34;99023.72;;;12.89;69.01
46392;BME280;32098;49.448;7.904;2023-06-24T04:04:03;99027.78;;;13.10;67.85
46392;BME280;32098;49.448;7.904;2023-06-24T04:06:30;99028.22;;;13.25;67.12
46392;BME280;32098;49.448;7.904;2023-06-24T04:08:56;99028.25;;;13.36;67.45
46392;BME280;32098;49.448;7.904;2023-06-24T04:11:23;99027.19;;;13.55;66.15
46392;BME280;32098;49.448;7.904;2023-06-24T04:13:50;99030.03;;;13.72;65.56
46392;BME280;32098;49.448;7.904;2023-06-24T04:16:16;99026.19;;;13.91;65.17
46392;BME280;32098;49.448;7.904;2023-06-24T04:18:43;99038.72;;;14.09;64.15
46392;BME280;32098;49.448;7.904;2023-06-24T04:21:10;99029.66;;;14.33;63.80
46392;BME280;32098;49.448;7.904;2023-06-24T04:23:36;99015.59;;;14.31;63.38
46392;BME280;32098;49.448;7.904;2023-06-24T04:26:03;99034.22;;;14.56;63.03
46392;BME280;32098;49.448;7.904;2023-06-24T04:28:30;99037.56;;;14.51;62.88
46392;BME280;32098;49.448;7.904;2023-06-24T04:30:56;99040.72;;;14.37;63.75
46392;BME280;32098;49.448;7.904;2023-06-24T04:33:23;99051.13;;;14.21;64.73
46392;BME280;32098;49.448;7.904;2023-06-24T04:35:50;99047.53;;;14.51;64.18
46392;BME280;32098;49.448;7.904;2023-06-24T04:38:18;99049.47;;;14.90;62.57
46392;BME280;32098;49.448;7.904;2023-06-24T04:40:47;99053.59;;;15.21;61.39
46392;BME280;32098;49.448;7.904;2023-06-24T04:43:14;99048.13;;;15.44;60.63
46392;BME280;32098;49.448;7.904;2023-06-24T04:45:41;99048.94;;;15.56;60.27
46392;BME280;32098;49.448;7.904;2023-06-24T04:48:07;99041.06;;;15.83;59.61
46392;BME280;32098;49.448;7.904;2023-06-24T04:50:34;99047.09;;;16.06;59.12
46392;BME280;32098;49.448;7.904;2023-06-24T04:53:01;99049.06;;;16.28;58.69
46392;BME280;32098;49.448;7.904;2023-06-24T04:55:28;99048.28;;;16.44;58.64
46392;BME280;32098;49.448;7.904;2023-06-24T04:57:56;99056.97;;;16.67;57.91
46392;BME280;32098;49.448;7.904;2023-06-24T05:00:22;99049.91;;;16.83;57.00
46392;BME280;32098;49.448;7.904;2023-06-24T05:02:50;99046.09;;;17.01;56.58
46392;BME280;32098;49.448;7.904;2023-06-24T05:05:18;99051.06;;;17.30;56.58
46392;BME280;32098;49.448;7.904;2023-06-24T05:07:46;99023.78;;;17.32;55.21
46392;BME280;32098;49.448;7.904;2023-06-24T05:10:13;99049.28;;;17.68;54.67
46392;BME280;32098;49.448;7.904;2023-06-24T05:12:40;99051.31;;;17.82;54.74
46392;BME280;32098;49.448;7.904;2023-06-24T05:15:07;99050.44;;;18.03;54.68
46392;BME280;32098;49.448;7.904;2023-06-24T05:17:34;99052.75;;;18.17;54.80
46392;BME280;32098;49.448;7.904;2023-06-24T05:20:00;99017.03;;;18.15;53.49
46392;BME280;32098;49.448;7.904;2023-06-24T05:22:27;99047.63;;;18.62;53.20
46392;BME280;32098;49.448;7.904;2023-06-24T05:24:53;99010.28;;;18.54;53.14
46392;BME280;32098;49.448;7.904;2023-06-24T05:27:20;99037.78;;;18.88;52.78
46392;BME280;32098;49.448;7.904;2023-06-24T05:29:47;99050.41;;;19.19;51.96
46392;BME280;32098;49.448;7.904;2023-06-24T05:32:13;99046.94;;;19.44;51.51
46392;BME280;32098;49.448;7.904;2023-06-24T05:34:40;99050.50;;;19.49;51.39
46392;BME280;32098;49.448;7.904;2023-06-24T05:37:07;99044.88;;;19.66;51.04
46392;BME280;32098;49.448;7.904;2023-06-24T05:39:34;99029.69;;;19.80;50.51
46392;BME280;32098;49.448;7.904;2023-06-24T05:42:00;99047.31;;;19.92;50.38
46392;BME280;32098;49.448;7.904;2023-06-24T05:44:27;99055.75;;;20.16;50.20
46392;BME280;32098;49.448;7.904;2023-06-24T05:46:53;99055.47;;;20.33;50.40
46392;BME280;32098;49.448;7.904;2023-06-24T05:49:20;99046.78;;;20.61;49.63
46392;BME280;32098;49.448;7.904;2023-06-24T05:51:46;99051.59;;;20.94;48.64
46392;BME280;32098;49.448;7.904;2023-06-24T05:54:13;99055.59;;;21.17;48.02
46392;BME280;32098;49.448;7.904;2023-06-24T05:56:39;99051.44;;;21.35;47.63
46392;BME280;32098;49.448;7.904;2023-06-24T05:59:06;99052.19;;;21.45;48.01
46392;BME280;32098;49.448;7.904;2023-06-24T06:01:32;99052.66;;;21.62;47.54
46392;BME280;32098;49.448;7.904;2023-06-24T06:03:59;98991.22;;;21.61;47.61
46392;BME280;32098;49.448;7.904;2023-06-24T06:06:26;99065.91;;;21.79;46.82
46392;BME280;32098;49.448;7.904;2023-06-24T06:08:52;99061.41;;;21.98;46.86
46392;BME280;32098;49.448;7.904;2023-06-24T06:11:19;99062.69;;;22.06;47.22
46392;BME280;32098;49.448;7.904;2023-06-24T06:13:45;99063.56;;;22.35;46.97
46392;BME280;32098;49.448;7.904;2023-06-24T06:16:12;99060.59;;;22.65;45.62
46392;BME280;32098;49.448;7.904;2023-06-24T06:18:39;99068.13;;;22.97;45.22
46392;BME280;32098;49.448;7.904;2023-06-24T06:21:05;99070.22;;;23.05;45.38
46392;BME280;32098;49.448;7.904;2023-06-24T06:23:32;99070.28;;;23.24;44.66
46392;BME280;32098;49.448;7.904;2023-06-24T06:25:58;99058.44;;;23.33;44.95
46392;BME280;32098;49.448;7.904;2023-06-24T06:28:25;99064.34;;;23.83;45.07
46392;BME280;32098;49.448;7.904;2023-06-24T06:30:51;99047.28;;;23.72;43.91
46392;BME280;32098;49.448;7.904;2023-06-24T06:33:18;99061.53;;;23.88;43.75
46392;BME280;32098;49.448;7.904;2023-06-24T06:35:44;99058.69;;;24.11;43.15
46392;BME280;32098;49.448;7.904;2023-06-24T06:38:11;99055.97;;;24.11;43.55
46392;BME280;32098;49.448;7.904;2023-06-24T06:40:37;99063.66;;;24.42;43.89
46392;BME280;32098;49.448;7.904;2023-06-24T06:43:04;99063.06;;;24.45;43.24
46392;BME280;32098;49.448;7.904;2023-06-24T06:45:31;99063.00;;;24.50;43.03
46392;BME280;32098;49.448;7.904;2023-06-24T06:47:58;99061.69;;;24.61;43.79
46392;BME280;32098;49.448;7.904;2023-06-24T06:50:25;99061.84;;;24.83;43.11
46392;BME280;32098;49.448;7.904;2023-06-24T06:52:51;99051.31;;;25.04;42.26
46392;BME280;32098;49.448;7.904;2023-06-24T06:55:18;99044.03;;;25.26;42.86
46392;BME280;32098;49.448;7.904;2023-06-24T06:57:44;99052.94;;;25.32;42.57
46392;BME280;32098;49.448;7.904;2023-06-24T07:00:11;99032.06;;;24.95;42.00
46392;BME280;32098;49.448;7.904;2023-06-24T07:02:38;99051.50;;;24.93;42.38
46392;BME280;32098;49.448;7.904;2023-06-24T07:05:05;99056.78;;;24.90;43.04
46392;BME280;32098;49.448;7.904;2023-06-24T07:07:32;99056.59;;;25.27;41.81
46392;BME280;32098;49.448;7.904;2023-06-24T07:09:59;99043.34;;;25.56;41.45
46392;BME280;32098;49.448;7.904;2023-06-24T07:12:25;99052.41;;;25.93;40.85
46392;BME280;32098;49.448;7.904;2023-06-24T07:14:52;99040.34;;;26.16;40.88
46392;BME280;32098;49.448;7.904;2023-06-24T07:17:18;99043.09;;;26.38;39.80
46392;BME280;32098;49.448;7.904;2023-06-24T07:19:45;99040.53;;;26.42;40.16
46392;BME280;32098;49.448;7.904;2023-06-24T07:22:11;99033.50;;;26.27;40.72
46392;BME280;32098;49.448;7.904;2023-06-24T07:24:54;99034.13;;;25.66;41.06
46392;BME280;32098;49.448;7.904;2023-06-24T07:27:22;99037.28;;;25.59;40.24
46392;BME280;32098;49.448;7.904;2023-06-24T07:29:49;99031.00;;;25.73;41.06
46392;BME280;32098;49.448;7.904;2023-06-24T07:32:15;99032.63;;;25.96;39.70
46392;BME280;32098;49.448;7.904;2023-06-24T07:34:42;99028.16;;;26.22;39.77
46392;BME280;32098;49.448;7.904;2023-06-24T07:37:08;99035.00;;;26.64;40.03
46392;BME280;32098;49.448;7.904;2023-06-24T07:39:49;99031.97;;;26.96;38.32
46392;BME280;32098;49.448;7.904;2023-06-24T07:42:15;99026.97;;;27.07;37.14
46392;BME280;32098;49.448;7.904;2023-06-24T07:44:48;99030.53;;;26.76;38.34
46392;BME280;32098;49.448;7.904;2023-06-24T07:47:16;99032.88;;;26.83;38.29
46392;BME280;32098;49.448;7.904;2023-06-24T07:49:43;99032.59;;;27.41;37.93
46392;BME280;32098;49.448;7.904;2023-06-24T07:52:09;99025.66;;;27.78;37.61
46392;BME280;32098;49.448;7.904;2023-06-24T07:54:36;99030.50;;;28.15;37.16
46392;BME280;32098;49.448;7.904;2023-06-24T07:57:03;99023.56;;;27.66;37.26
46392;BME280;32098;49.448;7.904;2023-06-24T07:59:29;99022.25;;;27.55;36.87
46392;BME280;32098;49.448;7.904;2023-06-24T08:01:56;99031.63;;;26.98;37.74
46392;BME280;32098;49.448;7.904;2023-06-24T08:04:22;99022.44;;;27.59;37.23
46392;BME280;32098;49.448;7.904;2023-06-24T08:06:49;99025.03;;;28.06;35.44
46392;BME280;32098;49.448;7.904;2023-06-24T08:09:16;99025.19;;;27.67;35.45
46392;BME280;32098;49.448;7.904;2023-06-24T08:11:43;99020.06;;;27.91;35.69
46392;BME280;32098;49.448;7.904;2023-06-24T08:14:10;99024.84;;;28.20;34.66
46392;BME280;32098;49.448;7.904;2023-06-24T08:16:37;99011.59;;;28.31;35.18
46392;BME280;32098;49.448;7.904;2023-06-24T08:19:03;99014.28;;;28.39;34.46
46392;BME280;32098;49.448;7.904;2023-06-24T08:21:30;99019.66;;;28.36;32.98
46392;BME280;32098;49.448;7.904;2023-06-24T08:23:56;99018.22;;;28.21;32.97
46392;BME280;32098;49.448;7.904;2023-06-24T08:26:23;99017.38;;;28.38;32.65
46392;BME280;32098;49.448;7.904;2023-06-24T08:28:49;99010.66;;;27.92;31.21
46392;BME280;32098;49.448;7.904;2023-06-24T08:31:16;99010.66;;;27.92;31.59
46392;BME280;32098;49.448;7.904;2023-06-24T08:33:44;99012.88;;;27.39;32.97
46392;BME280;32098;49.448;7.904;2023-06-24T08:36:11;98996.59;;;27.77;33.90
46392;BME280;32098;49.448;7.904;2023-06-24T08:38:38;99006.94;;;27.97;31.76
46392;BME280;32098;49.448;7.904;2023-06-24T08:41:04;99003.84;;;28.07;32.71
46392;BME280;32098;49.448;7.904;2023-06-24T08:43:31;98993.16;;;28.23;32.49
46392;BME280;32098;49.448;7.904;2023-06-24T08:45:58;98996.38;;;28.80;31.78
46392;BME280;32098;49.448;7.904;2023-06-24T08:48:25;99003.59;;;29.30;31.56
46392;BME280;32098;49.448;7.904;2023-06-24T08:50:56;99007.06;;;29.40;31.36
46392;BME280;32098;49.448;7.904;2023-06-24T08:53:26;99011.91;;;29.43;30.88
46392;BME280;32098;49.448;7.904;2023-06-24T08:55:53;99001.00;;;28.96;30.78
46392;BME280;32098;49.448;7.904;2023-06-24T08:58:20;98998.75;;;28.98;31.00
46392;BME280;32098;49.448;7.904;2023-06-24T09:00:47;99005.34;;;28.68;31.31
46392;BME280;32098;49.448;7.904;2023-06-24T09:03:14;98999.47;;;28.15;32.35
46392;BME280;32098;49.448;7.904;2023-06-24T09:05:40;99001.31;;;27.93;32.60
46392;BME280;32098;49.448;7.904;2023-06-24T09:08:07;98995.22;;;28.51;32.47
46392;BME280;32098;49.448;7.904;2023-06-24T09:10:37;98987.09;;;28.93;31.25
46392;BME280;32098;49.448;7.904;2023-06-24T09:13:05;98982.19;;;29.36;30.63
46392;BME280;32098;49.448;7.904;2023-06-24T09:15:37;98992.28;;;29.53;30.46
46392;BME280;32098;49.448;7.904;2023-06-24T09:18:04;98990.53;;;29.69;30.50
46392;BME280;32098;49.448;7.904;2023-06-24T09:20:32;98984.34;;;29.72;30.96
46392;BME280;32098;49.448;7.904;2023-06-24T09:23:00;98988.09;;;30.09;30.62
46392;BME280;32098;49.448;7.904;2023-06-24T09:25:27;98978.19;;;30.08;30.80
46392;BME280;32098;49.448;7.904;2023-06-24T09:27:55;98970.69;;;30.29;30.66
46392;BME280;32098;49.448;7.904;2023-06-24T09:30:24;98960.09;;;30.19;30.14
46392;BME280;32098;49.448;7.904;2023-06-24T09:32:52;98966.44;;;30.31;31.16
46392;BME280;32098;49.448;7.904;2023-06-24T09:35:23;98962.84;;;30.76;30.39
46392;BME280;32098;49.448;7.904;2023-06-24T09:37:55;98957.31;;;30.76;30.51
46392;BME280;32098;49.448;7.904;2023-06-24T09:40:22;98966.97;;;29.92;30.97
46392;BME280;32098;49.448;7.904;2023-06-24T09:45:29;98959.25;;;28.65;32.64
46392;BME280;32098;49.448;7.904;2023-06-24T09:47:57;98954.00;;;27.54;33.34
46392;BME280;32098;49.448;7.904;2023-06-24T09:50:26;98957.22;;;27.38;34.48
46392;BME280;32098;49.448;7.904;2023-06-24T09:52:53;98957.78;;;27.10;33.98
46392;BME280;32098;49.448;7.904;2023-06-24T09:55:23;98911.72;;;27.46;34.81
46392;BME280;32098;49.448;7.904;2023-06-24T09:57:52;98941.59;;;28.28;33.91
46392;BME280;32098;49.448;7.904;2023-06-24T10:00:20;98951.22;;;27.79;34.88
46392;BME280;32098;49.448;7.904;2023-06-24T10:02:48;98952.59;;;26.91;35.54
46392;BME280;32098;49.448;7.904;2023-06-24T10:05:15;98944.41;;;26.21;36.17
46392;BME280;32098;49.448;7.904;2023-06-24T10:07:42;98954.16;;;26.13;38.20
46392;BME280;32098;49.448;7.904;2023-06-24T10:10:09;98945.72;;;25.79;37.88
46392;BME280;32098;49.448;7.904;2023-06-24T10:12:36;98952.25;;;25.34;37.72
46392;BME280;32098;49.448;7.904;2023-06-24T10:15:03;98945.72;;;25.43;38.81
46392;BME280;32098;49.448;7.904;2023-06-24T10:17:30;98942.03;;;26.06;38.31
46392;BME280;32098;49.448;7.904;2023-06-24T10:19:57;98945.44;;;26.11;37.49
46392;BME280;32098;49.448;7.904;2023-06-24T10:22:24;98942.34;;;26.04;37.03
46392;BME280;32098;49.448;7.904;2023-06-24T10:24:52;98890.84;;;25.18;37.94
46392;BME280;32098;49.448;7.904;2023-06-24T10:27:21;98939.16;;;24.81;38.01
46392;BME280;32098;49.448;7.904;2023-06-24T10:29:50;98931.28;;;24.66;37.58
46392;BME280;32098;49.448;7.904;2023-06-24T10:32:18;98930.34;;;24.71;37.32
46392;BME280;32098;49.448;7.904;2023-06-24T10:34:46;98922.38;;;24.61;38.43
46392;BME280;32098;49.448;7.904;2023-06-24T10:37:21;98917.22;;;24.59;39.24
46392;BME280;32098;49.448;7.904;2023-06-24T10:47:43;98915.09;;;24.70;39.53
46392;BME280;32098;49.448;7.904;2023-06-24T10:50:12;98894.03;;;24.84;38.69
46392;BME280;32098;49.448;7.904;2023-06-24T10:52:49;98907.25;;;25.04;39.35
46392;BME280;32098;49.448;7.904;2023-06-24T10:55:19;98904.19;;;25.19;38.39
46392;BME280;32098;49.448;7.904;2023-06-24T10:57:46;98916.03;;;25.28;38.65
46392;BME280;32098;49.448;7.904;2023-06-24T11:00:14;98860.53;;;25.28;36.97
46392;BME280;32098;49.448;7.904;2023-06-24T11:02:41;98894.63;;;25.97;36.96
46392;BME280;32098;49.448;7.904;2023-06-24T11:05:08;98855.53;;;25.52;35.46
46392;BME280;32098;49.448;7.904;2023-06-24T11:07:36;98890.41;;;25.46;36.51
46392;BME280;32098;49.448;7.904;2023-06-24T11:10:06;98877.88;;;25.23;36.40
46392;BME280;32098;49.448;7.904;2023-06-24T11:12:38;98886.31;;;25.35;36.72
46392;BME280;32098;49.448;7.904;2023-06-24T11:15:07;98880.53;;;25.37;37.45
46392;BME280;32098;49.448;7.904;2023-06-24T11:17:35;98882.56;;;25.09;35.61
46392;BME280;32098;49.448;7.904;2023-06-24T11:20:06;98876.81;;;25.55;35.75
46392;BME280;32098;49.448;7.904;2023-06-24T11:22:33;98876.53;;;25.87;35.40
46392;BME280;32098;49.448;7.904;2023-06-24T11:25:00;98876.19;;;26.11;35.72
46392;BME280;32098;49.448;7.904;2023-06-24T11:27:31;98873.56;;;26.28;34.29
46392;BME280;32098;49.448;7.904;2023-06-24T11:29:59;98856.91;;;26.72;34.67
46392;BME280;32098;49.448;7.904;2023-06-24T11:32:42;98862.94;;;26.83;33.88
46392;BME280;32098;49.448;7.904;2023-06-24T11:35:10;98866.78;;;26.82;34.65
46392;BME280;32098;49.448;7.904;2023-06-24T11:37:41;98863.25;;;27.16;33.84
46392;BME280;32098;49.448;7.904;2023-06-24T11:40:09;98856.97;;;27.58;33.01
46392;BME280;32098;49.448;7.904;2023-06-24T11:42:41;98860.25;;;27.89;33.66
46392;BME280;32098;49.448;7.904;2023-06-24T11:45:13;98850.44;;;27.88;33.75
46392;BME280;32098;49.448;7.904;2023-06-24T11:47:42;98844.78;;;27.93;32.69
46392;BME280;32098;49.448;7.904;2023-06-24T11:50:09;98837.38;;;27.77;32.87
46392;BME280;32098;49.448;7.904;2023-06-24T11:52:40;98850.81;;;26.84;34.53
46392;BME280;32098;49.448;7.904;2023-06-24T11:55:17;98845.72;;;26.52;33.88
46392;BME280;32098;49.448;7.904;2023-06-24T12:00:25;98846.03;;;26.42;35.72
46392;BME280;32098;49.448;7.904;2023-06-24T12:02:57;98838.31;;;26.52;34.15
46392;BME280;32098;49.448;7.904;2023-06-24T12:05:29;98835.31;;;25.84;35.08
46392;BME280;32098;49.448;7.904;2023-06-24T12:07:58;98825.50;;;25.91;35.77
46392;BME280;32098;49.448;7.904;2023-06-24T12:10:25;98832.97;;;25.69;35.42
46392;BME280;32098;49.448;7.904;2023-06-24T12:12:52;98841.81;;;25.66;35.24
46392;BME280;32098;49.448;7.904;2023-06-24T12:15:19;98832.63;;;26.23;35.26
46392;BME280;32098;49.448;7.904;2023-06-24T12:17:45;98832.03;;;26.43;33.78
46392;BME280;32098;49.448;7.904;2023-06-24T12:20:13;98823.09;;;26.86;33.76
46392;BME280;32098;49.448;7.904;2023-06-24T12:22:41;98820.50;;;27.15;33.74
46392;BME280;32098;49.448;7.904;2023-06-24T12:25:08;98816.16;;;27.39;33.10
46392;BME280;32098;49.448;7.904;2023-06-24T12:27:35;98813.50;;;27.69;32.97
46392;BME280;32098;49.448;7.904;2023-06-24T12:30:02;98777.69;;;27.57;33.07
46392;BME280;32098;49.448;7.904;2023-06-24T12:32:29;98809.50;;;28.04;32.16
46392;BME280;32098;49.448;7.904;2023-06-24T12:34:55;98813.53;;;28.06;31.85
46392;BME280;32098;49.448;7.904;2023-06-24T12:37:22;98767.72;;;27.98;31.16
46392;BME280;32098;49.448;7.904;2023-06-24T12:39:48;98795.72;;;28.42;30.76
46392;BME280;32098;49.448;7.904;2023-06-24T12:42:17;98800.88;;;28.52;31.01
46392;BME280;32098;49.448;7.904;2023-06-24T12:44:43;98796.34;;;28.56;31.51
46392;BME280;32098;49.448;7.904;2023-06-24T12:47:10;98796.69;;;28.17;31.17
46392;BME280;32098;49.448;7.904;2023-06-24T12:49:36;98797.88;;;28.07;31.73
46392;BME280;32098;49.448;7.904;2023-06-24T12:52:03;98789.22;;;27.79;31.33
46392;BME280;32098;49.448;7.904;2023-06-24T12:54:30;98789.47;;;27.57;31.68
46392;BME280;32098;49.448;7.904;2023-06-24T12:56:56;98783.34;;;27.60;31.54
46392;BME280;32098;49.448;7.904;2023-06-24T12:59:38;98789.69;;;27.35;32.01
46392;BME280;32098;49.448;7.904;2023-06-24T13:02:05;98781.19;;;26.94;32.79
46392;BME280;32098;49.448;7.904;2023-06-24T13:04:32;98784.69;;;26.68;33.70
46392;BME280;32098;49.448;7.904;2023-06-24T13:06:59;98778.06;;;26.61;34.01
46392;BME280;32098;49.448;7.904;2023-06-24T13:09:25;98780.63;;;26.57;32.48
46392;BME280;32098;49.448;7.904;2023-06-24T13:11:52;98781.28;;;26.46;32.85
46392;BME280;32098;49.448;7.904;2023-06-24T13:14:18;98773.72;;;26.68;33.08
46392;BME280;32098;49.448;7.904;2023-06-24T13:16:45;98777.25;;;26.69;33.62
46392;BME280;32098;49.448;7.904;2023-06-24T13:19:12;98783.66;;;26.39;33.00
46392;BME280;32098;49.448;7.904;2023-06-24T13:21:42;98775.78;;;26.54;33.73
46392;BME280;32098;49.448;7.904;2023-06-24T13:24:08;98774.03;;;26.58;32.52
46392;BME280;32098;49.448;7.904;2023-06-24T13:26:35;98775.97;;;26.58;33.19